Nikkei Verde — 3FEY7 — position and weather

sailwx.info

Track history (hours):
 
Tides and Currents Weather Stations Pressure Air Temp Water Temp Dewpoint Dewpoint Depression Visibility Wind Speed Wind Dir Waves Ship Positions

Nikkei Verde

Last reported at 2016-May-26 02:25 UTC. Time now 2016-May-28 19:48 UTC.
Position N 37°31' E 123°07'.

Length 189 m; draft 10.2 m.

Type: Cargo ship. MMSI: 354519000.

Date/timePositionNaut miles runAvg speedWind from/ knotsBaromVisibWave heightAir tempDewpointWater temp
2016-May-26 02:25N 37°31' E 123°07'1512.0
2016-May-26 01:08N 37°39' E 122°50'711.7
2016-May-26 00:33N 37°42' E 122°43'1511.9
2016-May-25 23:18N 37°49' E 122°26'1012.9
2016-May-25 22:33N 37°54' E 122°16'1313.3
2016-May-25 21:33N 38°01' E 122°01'136 8.5
2016-May-25 05:31N 40°18' E 122°01'3 0.5
2016-May-24 23:21N 40°19' E 122°05'0 0.0
2016-May-24 22:33N 40°19' E 122°05'0 0.0
2016-May-24 21:09N 40°19' E 122°05'0 0.0
2016-May-24 20:33N 40°19' E 122°05'0 0.0
2016-May-24 19:21N 40°19' E 122°05'0 0.0
2016-May-24 17:15N 40°19' E 122°05'0 0.0
2016-May-24 14:33N 40°19' E 122°05'0 0.0
2016-May-24 09:27N 40°19' E 122°05'0 0.0
2016-May-24 06:27N 40°19' E 122°05'0 0.0
2016-May-23 21:21N 40°19' E 122°05'0 0.0
2016-May-23 20:33N 40°19' E 122°05'0 0.0
2016-May-23 19:09N 40°19' E 122°05'0 0.0
2016-May-23 01:09N 40°19' E 122°05'0 0.0
2016-May-23 00:33N 40°19' E 122°05'0 0.0
2016-May-22 23:33N 40°19' E 122°05'0 0.0
2016-May-22 21:21N 40°19' E 122°05'0 0.0
2016-May-22 20:15N 40°19' E 122°05'0 0.0
2016-May-22 14:27N 40°19' E 122°05'0 0.0
2016-May-22 13:33N 40°19' E 122°05'0 0.0
2016-May-22 12:27N 40°19' E 122°05'0 0.0
2016-May-22 11:27N 40°19' E 122°05'0 0.0
2016-May-22 10:15N 40°19' E 122°05'0 0.0
2016-May-22 03:03N 40°19' E 122°05'0 0.0
2016-May-22 01:27N 40°19' E 122°05'0 0.0
2016-May-21 21:33N 40°19' E 122°05'0 0.0
2016-May-21 20:21N 40°19' E 122°05'0 0.0
2016-May-21 19:21N 40°19' E 122°05'0 0.0
2016-May-21 12:33N 40°19' E 122°05'0 0.0
2016-May-21 11:33N 40°19' E 122°05'0 0.0
2016-May-21 06:27N 40°19' E 122°05'2 2.3
2016-May-21 05:33N 40°18' E 122°02'110 9.7
2016-May-20 18:12N 38°45' E 120°46'912.4
2016-May-20 17:30N 38°38' E 120°52'1212.7
2016-May-20 16:33N 38°32' E 121°06'1312.7
2016-May-20 15:33N 38°26' E 121°20'1312.6
2016-May-20 14:32N 38°20' E 121°34'1212.7
2016-May-20 13:33N 38°13' E 121°48'1712.6
2016-May-20 12:11N 38°06' E 122°08'1312.3
2016-May-20 11:08N 38°00' E 122°22'812.9
2016-May-20 10:33N 37°57' E 122°31'1313.1
2016-May-20 09:33N 37°51' E 122°46'1313.3
2016-May-20 08:33N 37°45' E 123°01'1312.8
2016-May-20 07:33N 37°36' E 123°13'1312.9
2016-May-20 06:33N 37°24' E 123°18'1212.3
2016-May-20 05:33N 37°13' E 123°23'1211.8
2016-May-20 04:30N 37°01' E 123°29'1111.5
2016-May-20 03:33N 36°51' E 123°33'1111.3
2016-May-20 02:33N 36°40' E 123°38'1411.6
2016-May-20 01:23N 36°27' E 123°43'9 8.8
2016-May-20 00:23N 36°19' E 123°47'4912.4
2016-May-19 20:27N 35°33' E 124°08'  
Track history (hours):
 
Tides and Currents Weather Stations Pressure Air Temp Water Temp Dewpoint Dewpoint Depression Visibility Wind Speed Wind Dir Waves Ship Positions

Nikkei Verde

Last reported at 2016-May-26 02:25 UTC. Time now 2016-May-28 19:48 UTC.
Position N 37°31' E 123°07'.

Length 189 m; draft 10.2 m.

Type: Cargo ship. MMSI: 354519000.

Date/timePositionNaut miles runAvg speedWind from/ knotsBaromVisibWave heightAir tempDewpointWater temp
2016-May-26 02:25N 37°31' E 123°07'1512.0
2016-May-26 01:08N 37°39' E 122°50'711.7
2016-May-26 00:33N 37°42' E 122°43'1511.9
2016-May-25 23:18N 37°49' E 122°26'1012.9
2016-May-25 22:33N 37°54' E 122°16'1313.3
2016-May-25 21:33N 38°01' E 122°01'136 8.5
2016-May-25 05:31N 40°18' E 122°01'3 0.5
2016-May-24 23:21N 40°19' E 122°05'0 0.0
2016-May-24 22:33N 40°19' E 122°05'0 0.0
2016-May-24 21:09N 40°19' E 122°05'0 0.0
2016-May-24 20:33N 40°19' E 122°05'0 0.0
2016-May-24 19:21N 40°19' E 122°05'0 0.0
2016-May-24 17:15N 40°19' E 122°05'0 0.0
2016-May-24 14:33N 40°19' E 122°05'0 0.0
2016-May-24 09:27N 40°19' E 122°05'0 0.0
2016-May-24 06:27N 40°19' E 122°05'0 0.0
2016-May-23 21:21N 40°19' E 122°05'0 0.0
2016-May-23 20:33N 40°19' E 122°05'0 0.0
2016-May-23 19:09N 40°19' E 122°05'0 0.0
2016-May-23 01:09N 40°19' E 122°05'0 0.0
2016-May-23 00:33N 40°19' E 122°05'0 0.0
2016-May-22 23:33N 40°19' E 122°05'0 0.0
2016-May-22 21:21N 40°19' E 122°05'0 0.0
2016-May-22 20:15N 40°19' E 122°05'0 0.0
2016-May-22 14:27N 40°19' E 122°05'0 0.0
2016-May-22 13:33N 40°19' E 122°05'0 0.0
2016-May-22 12:27N 40°19' E 122°05'0 0.0
2016-May-22 11:27N 40°19' E 122°05'0 0.0
2016-May-22 10:15N 40°19' E 122°05'0 0.0
2016-May-22 03:03N 40°19' E 122°05'0 0.0
2016-May-22 01:27N 40°19' E 122°05'0 0.0
2016-May-21 21:33N 40°19' E 122°05'0 0.0
2016-May-21 20:21N 40°19' E 122°05'0 0.0
2016-May-21 19:21N 40°19' E 122°05'0 0.0
2016-May-21 12:33N 40°19' E 122°05'0 0.0
2016-May-21 11:33N 40°19' E 122°05'0 0.0
2016-May-21 06:27N 40°19' E 122°05'2 2.3
2016-May-21 05:33N 40°18' E 122°02'110 9.7
2016-May-20 18:12N 38°45' E 120°46'912.4
2016-May-20 17:30N 38°38' E 120°52'1212.7
2016-May-20 16:33N 38°32' E 121°06'1312.7
2016-May-20 15:33N 38°26' E 121°20'1312.6
2016-May-20 14:32N 38°20' E 121°34'1212.7
2016-May-20 13:33N 38°13' E 121°48'1712.6
2016-May-20 12:11N 38°06' E 122°08'1312.3
2016-May-20 11:08N 38°00' E 122°22'812.9
2016-May-20 10:33N 37°57' E 122°31'1313.1
2016-May-20 09:33N 37°51' E 122°46'1313.3
2016-May-20 08:33N 37°45' E 123°01'1312.8
2016-May-20 07:33N 37°36' E 123°13'1312.9
2016-May-20 06:33N 37°24' E 123°18'1212.3
2016-May-20 05:33N 37°13' E 123°23'1211.8
2016-May-20 04:30N 37°01' E 123°29'1111.5
2016-May-20 03:33N 36°51' E 123°33'1111.3
2016-May-20 02:33N 36°40' E 123°38'1411.6
2016-May-20 01:23N 36°27' E 123°43'9 8.8
2016-May-20 00:23N 36°19' E 123°47'4912.4
2016-May-19 20:27N 35°33' E 124°08'  

Dump ship's entire track history